sensor_id;sensor_type;location;lat;lon;timestamp;pressure;altitude;pressure_sealevel;temperature;humidity
50550;BME280;36505;52.512;13.460;2023-04-21T00:00:55;101504.53;;;10.94;73.14
50550;BME280;36505;52.512;13.460;2023-04-21T00:03:21;101505.22;;;10.90;73.47
50550;BME280;36505;52.512;13.460;2023-04-21T00:05:49;101484.03;;;10.79;73.38
50550;BME280;36505;52.512;13.460;2023-04-21T00:08:15;101508.63;;;10.85;73.48
50550;BME280;36505;52.512;13.460;2023-04-21T00:10:41;101499.19;;;10.81;73.53
50550;BME280;36505;52.512;13.460;2023-04-21T00:13:06;101507.03;;;10.78;73.64
50550;BME280;36505;52.512;13.460;2023-04-21T00:15:32;101499.13;;;10.69;73.89
50550;BME280;36505;52.512;13.460;2023-04-21T00:17:57;101487.38;;;10.62;74.05
50550;BME280;36505;52.512;13.460;2023-04-21T00:20:23;101490.41;;;10.54;74.27
50550;BME280;36505;52.512;13.460;2023-04-21T00:22:52;101493.16;;;10.54;74.34
50550;BME280;36505;52.512;13.460;2023-04-21T00:25:17;101475.66;;;10.37;74.60
50550;BME280;36505;52.512;13.460;2023-04-21T00:27:43;101496.13;;;10.53;74.49
50550;BME280;36505;52.512;13.460;2023-04-21T00:30:08;101499.06;;;10.51;74.24
50550;BME280;36505;52.512;13.460;2023-04-21T00:32:34;101501.81;;;10.51;74.24
50550;BME280;36505;52.512;13.460;2023-04-21T00:34:59;101490.91;;;10.45;74.35
50550;BME280;36505;52.512;13.460;2023-04-21T00:37:25;101498.53;;;10.43;74.11
50550;BME280;36505;52.512;13.460;2023-04-21T00:39:50;101494.13;;;10.42;73.96
50550;BME280;36505;52.512;13.460;2023-04-21T00:42:15;101490.56;;;10.41;73.81
50550;BME280;36505;52.512;13.460;2023-04-21T00:44:41;101493.91;;;10.43;73.66
50550;BME280;36505;52.512;13.460;2023-04-21T00:47:07;101494.34;;;10.40;73.45
50550;BME280;36505;52.512;13.460;2023-04-21T00:49:32;101488.03;;;10.40;73.21
50550;BME280;36505;52.512;13.460;2023-04-21T00:51:58;101492.06;;;10.37;73.20
50550;BME280;36505;52.512;13.460;2023-04-21T00:54:23;101475.94;;;10.29;73.03
50550;BME280;36505;52.512;13.460;2023-04-21T00:56:51;101478.41;;;10.30;73.24
50550;BME280;36505;52.512;13.460;2023-04-21T00:59:17;101474.09;;;10.23;73.15
50550;BME280;36505;52.512;13.460;2023-04-21T01:01:42;101483.31;;;10.28;72.92
50550;BME280;36505;52.512;13.460;2023-04-21T01:04:08;101473.00;;;10.24;72.96
50550;BME280;36505;52.512;13.460;2023-04-21T01:06:34;101468.00;;;10.21;72.28
50550;BME280;36505;52.512;13.460;2023-04-21T01:09:00;101473.63;;;10.26;72.25
50550;BME280;36505;52.512;13.460;2023-04-21T01:11:27;101466.31;;;10.20;72.08
50550;BME280;36505;52.512;13.460;2023-04-21T01:13:53;101482.31;;;10.23;71.78
50550;BME280;36505;52.512;13.460;2023-04-21T01:16:22;101489.28;;;10.19;71.82
50550;BME280;36505;52.512;13.460;2023-04-21T01:18:48;101463.66;;;10.07;71.64
50550;BME280;36505;52.512;13.460;2023-04-21T01:21:15;101490.97;;;10.13;71.70
50550;BME280;36505;52.512;13.460;2023-04-21T01:23:41;101474.78;;;10.12;71.46
50550;BME280;36505;52.512;13.460;2023-04-21T01:26:07;101486.19;;;10.09;71.39
50550;BME280;36505;52.512;13.460;2023-04-21T01:28:33;101476.13;;;10.03;71.55
50550;BME280;36505;52.512;13.460;2023-04-21T01:30:58;101435.06;;;9.78;71.30
50550;BME280;36505;52.512;13.460;2023-04-21T01:33:24;101471.94;;;10.00;71.40
50550;BME280;36505;52.512;13.460;2023-04-21T01:35:49;101472.78;;;10.01;71.34
50550;BME280;36505;52.512;13.460;2023-04-21T01:38:15;101462.16;;;9.86;71.29
50550;BME280;36505;52.512;13.460;2023-04-21T01:40:47;101463.38;;;9.90;71.25
50550;BME280;36505;52.512;13.460;2023-04-21T01:43:15;101469.03;;;9.95;71.14
50550;BME280;36505;52.512;13.460;2023-04-21T01:45:41;101463.38;;;9.90;71.25
50550;BME280;36505;52.512;13.460;2023-04-21T01:48:06;101460.63;;;9.90;70.92
50550;BME280;36505;52.512;13.460;2023-04-21T01:50:31;101452.94;;;9.80;71.19
50550;BME280;36505;52.512;13.460;2023-04-21T01:52:57;101453.16;;;9.79;70.86
50550;BME280;36505;52.512;13.460;2023-04-21T01:55:22;101471.63;;;9.83;70.74
50550;BME280;36505;52.512;13.460;2023-04-21T01:57:48;101454.00;;;9.79;70.85
50550;BME280;36505;52.512;13.460;2023-04-21T02:00:13;101450.59;;;9.84;70.67
50550;BME280;36505;52.512;13.460;2023-04-21T02:02:39;101458.84;;;9.77;70.59
50550;BME280;36505;52.512;13.460;2023-04-21T02:05:05;101456.13;;;9.77;70.79
50550;BME280;36505;52.512;13.460;2023-04-21T02:07:30;101449.41;;;9.73;70.76
50550;BME280;36505;52.512;13.460;2023-04-21T02:09:56;101451.31;;;9.73;70.50
50550;BME280;36505;52.512;13.460;2023-04-21T02:12:21;101456.78;;;9.73;70.48
50550;BME280;36505;52.512;13.460;2023-04-21T02:14:46;101454.44;;;9.76;70.41
50550;BME280;36505;52.512;13.460;2023-04-21T02:17:13;101439.16;;;9.69;70.21
50550;BME280;36505;52.512;13.460;2023-04-21T02:19:38;101450.91;;;9.69;70.49
50550;BME280;36505;52.512;13.460;2023-04-21T02:22:05;101451.53;;;9.71;70.09
50550;BME280;36505;52.512;13.460;2023-04-21T02:24:33;101451.16;;;9.68;70.13
50550;BME280;36505;52.512;13.460;2023-04-21T02:26:59;101451.38;;;9.66;70.01
50550;BME280;36505;52.512;13.460;2023-04-21T02:29:24;101442.53;;;9.64;69.72
50550;BME280;36505;52.512;13.460;2023-04-21T02:31:49;101448.16;;;9.69;69.80
50550;BME280;36505;52.512;13.460;2023-04-21T02:34:15;101445.72;;;9.61;69.80
50550;BME280;36505;52.512;13.460;2023-04-21T02:36:40;101435.44;;;9.57;69.83
50550;BME280;36505;52.512;13.460;2023-04-21T02:39:06;101466.53;;;9.62;69.69
50550;BME280;36505;52.512;13.460;2023-04-21T02:41:31;101450.34;;;9.61;69.46
50550;BME280;36505;52.512;13.460;2023-04-21T02:43:56;101444.47;;;9.57;69.34
50550;BME280;36505;52.512;13.460;2023-04-21T02:46:22;101444.25;;;9.59;69.42
50550;BME280;36505;52.512;13.460;2023-04-21T02:48:47;101445.19;;;9.46;69.42
50550;BME280;36505;52.512;13.460;2023-04-21T02:51:13;101446.84;;;9.54;69.21
50550;BME280;36505;52.512;13.460;2023-04-21T02:53:40;101447.66;;;9.54;69.12
50550;BME280;36505;52.512;13.460;2023-04-21T02:56:07;101440.09;;;9.49;69.12
50550;BME280;36505;52.512;13.460;2023-04-21T02:58:34;101448.56;;;9.48;69.54
50550;BME280;36505;52.512;13.460;2023-04-21T03:01:00;101452.97;;;9.42;69.23
50550;BME280;36505;52.512;13.460;2023-04-21T03:03:26;101437.88;;;9.40;69.23
50550;BME280;36505;52.512;13.460;2023-04-21T03:06:00;101430.09;;;9.37;68.85
50550;BME280;36505;52.512;13.460;2023-04-21T03:08:26;101426.31;;;9.38;69.03
50550;BME280;36505;52.512;13.460;2023-04-21T03:10:52;101424.69;;;9.30;69.09
50550;BME280;36505;52.512;13.460;2023-04-21T03:13:18;101444.81;;;9.36;69.46
50550;BME280;36505;52.512;13.460;2023-04-21T03:15:43;101431.44;;;9.28;69.35
50550;BME280;36505;52.512;13.460;2023-04-21T03:18:09;101429.97;;;9.25;69.30
50550;BME280;36505;52.512;13.460;2023-04-21T03:20:35;101427.91;;;9.21;69.31
50550;BME280;36505;52.512;13.460;2023-04-21T03:23:00;101431.22;;;9.23;69.51
50550;BME280;36505;52.512;13.460;2023-04-21T03:25:26;101439.19;;;9.31;69.33
50550;BME280;36505;52.512;13.460;2023-04-21T03:27:52;101445.94;;;9.22;69.74
50550;BME280;36505;52.512;13.460;2023-04-21T03:30:18;101418.69;;;9.08;69.63
50550;BME280;36505;52.512;13.460;2023-04-21T03:32:43;101432.13;;;9.17;69.57
50550;BME280;36505;52.512;13.460;2023-04-21T03:35:09;101413.72;;;8.99;69.70
50550;BME280;36505;52.512;13.460;2023-04-21T03:37:34;101420.88;;;9.00;69.75
50550;BME280;36505;52.512;13.460;2023-04-21T03:39:59;101427.81;;;8.96;69.75
50550;BME280;36505;52.512;13.460;2023-04-21T03:42:25;101433.44;;;9.01;70.00
50550;BME280;36505;52.512;13.460;2023-04-21T03:44:51;101423.84;;;8.92;70.02
50550;BME280;36505;52.512;13.460;2023-04-21T03:47:16;101452.78;;;9.06;70.06
50550;BME280;36505;52.512;13.460;2023-04-21T03:49:41;101424.69;;;8.92;70.00
50550;BME280;36505;52.512;13.460;2023-04-21T03:52:07;101455.09;;;9.02;70.08
50550;BME280;36505;52.512;13.460;2023-04-21T03:54:32;101441.63;;;9.01;70.17
50550;BME280;36505;52.512;13.460;2023-04-21T03:56:58;101444.41;;;8.94;70.03
50550;BME280;36505;52.512;13.460;2023-04-21T03:59:23;101436.91;;;8.83;70.07
50550;BME280;36505;52.512;13.460;2023-04-21T04:01:48;101439.81;;;8.88;70.09
50550;BME280;36505;52.512;13.460;2023-04-21T04:04:14;101428.28;;;8.86;70.01
50550;BME280;36505;52.512;13.460;2023-04-21T04:06:39;101431.63;;;8.82;70.21
50550;BME280;36505;52.512;13.460;2023-04-21T04:09:05;101452.38;;;8.96;70.29
50550;BME280;36505;52.512;13.460;2023-04-21T04:11:30;101432.69;;;8.81;70.32
50550;BME280;36505;52.512;13.460;2023-04-21T04:13:56;101454.72;;;8.92;70.02
50550;BME280;36505;52.512;13.460;2023-04-21T04:16:22;101457.00;;;8.95;69.84
50550;BME280;36505;52.512;13.460;2023-04-21T04:18:49;101447.38;;;8.93;70.15
50550;BME280;36505;52.512;13.460;2023-04-21T04:21:15;101423.47;;;8.75;69.70
50550;BME280;36505;52.512;13.460;2023-04-21T04:23:41;101438.13;;;8.87;69.86
50550;BME280;36505;52.512;13.460;2023-04-21T04:26:07;101458.28;;;8.99;69.74
50550;BME280;36505;52.512;13.460;2023-04-21T04:28:32;101458.88;;;9.01;69.78
50550;BME280;36505;52.512;13.460;2023-04-21T04:30:59;101460.56;;;9.02;69.68
50550;BME280;36505;52.512;13.460;2023-04-21T04:33:25;101456.06;;;9.15;69.36
50550;BME280;36505;52.512;13.460;2023-04-21T04:35:50;101457.06;;;9.33;68.44
50550;BME280;36505;52.512;13.460;2023-04-21T04:38:16;101459.81;;;9.58;67.59
50550;BME280;36505;52.512;13.460;2023-04-21T04:40:42;101450.16;;;9.56;67.09
50550;BME280;36505;52.512;13.460;2023-04-21T04:43:07;101455.19;;;9.59;67.11
50550;BME280;36505;52.512;13.460;2023-04-21T04:45:35;101457.56;;;9.55;67.22
50550;BME280;36505;52.512;13.460;2023-04-21T04:48:02;101459.19;;;9.56;67.18
50550;BME280;36505;52.512;13.460;2023-04-21T04:50:28;101465.38;;;9.76;66.59
50550;BME280;36505;52.512;13.460;2023-04-21T04:52:53;101464.78;;;9.74;66.40
50550;BME280;36505;52.512;13.460;2023-04-21T04:55:20;101467.81;;;10.16;65.22
50550;BME280;36505;52.512;13.460;2023-04-21T04:57:46;101456.50;;;10.55;63.52
50550;BME280;36505;52.512;13.460;2023-04-21T05:00:12;101461.56;;;10.52;63.35
50550;BME280;36505;52.512;13.460;2023-04-21T05:02:39;101472.00;;;10.43;63.63
50550;BME280;36505;52.512;13.460;2023-04-21T05:05:05;101465.09;;;10.59;63.26
50550;BME280;36505;52.512;13.460;2023-04-21T05:07:32;101477.34;;;10.93;61.93
50550;BME280;36505;52.512;13.460;2023-04-21T05:09:57;101475.94;;;11.38;60.18
50550;BME280;36505;52.512;13.460;2023-04-21T05:12:23;101480.72;;;12.14;57.61
50550;BME280;36505;52.512;13.460;2023-04-21T05:14:48;101478.41;;;12.70;55.97
50550;BME280;36505;52.512;13.460;2023-04-21T05:17:14;101470.69;;;13.30;53.98
50550;BME280;36505;52.512;13.460;2023-04-21T05:19:39;101464.50;;;13.68;52.48
50550;BME280;36505;52.512;13.460;2023-04-21T05:22:04;101471.09;;;14.12;51.12
50550;BME280;36505;52.512;13.460;2023-04-21T05:24:32;101473.56;;;14.63;49.88
50550;BME280;36505;52.512;13.460;2023-04-21T05:26:57;101479.25;;;14.57;49.52
50550;BME280;36505;52.512;13.460;2023-04-21T05:29:22;101476.97;;;14.54;49.32
50550;BME280;36505;52.512;13.460;2023-04-21T05:31:48;101465.59;;;14.45;49.58
50550;BME280;36505;52.512;13.460;2023-04-21T05:34:13;101471.56;;;14.09;50.72
50550;BME280;36505;52.512;13.460;2023-04-21T05:36:42;101477.16;;;14.14;51.36
50550;BME280;36505;52.512;13.460;2023-04-21T05:39:08;101466.47;;;14.17;50.85
50550;BME280;36505;52.512;13.460;2023-04-21T05:41:33;101480.50;;;14.66;49.26
50550;BME280;36505;52.512;13.460;2023-04-21T05:43:59;101476.38;;;14.69;48.86
50550;BME280;36505;52.512;13.460;2023-04-21T05:46:24;101468.38;;;15.32;47.69
50550;BME280;36505;52.512;13.460;2023-04-21T05:48:49;101474.53;;;16.20;45.34
50550;BME280;36505;52.512;13.460;2023-04-21T05:51:15;101467.06;;;16.57;44.04
50550;BME280;36505;52.512;13.460;2023-04-21T05:53:41;101469.97;;;17.40;42.83
50550;BME280;36505;52.512;13.460;2023-04-21T05:56:10;101464.28;;;17.92;40.95
50550;BME280;36505;52.512;13.460;2023-04-21T05:58:36;101470.38;;;18.09;40.61
50550;BME280;36505;52.512;13.460;2023-04-21T06:01:02;101465.38;;;17.81;40.53
50550;BME280;36505;52.512;13.460;2023-04-21T06:03:32;101459.03;;;18.06;40.79
50550;BME280;36505;52.512;13.460;2023-04-21T06:05:59;101451.66;;;19.06;38.55
50550;BME280;36505;52.512;13.460;2023-04-21T06:08:24;101454.13;;;19.67;36.78
50550;BME280;36505;52.512;13.460;2023-04-21T06:10:50;101453.41;;;19.51;37.14
50550;BME280;36505;52.512;13.460;2023-04-21T06:13:15;101447.03;;;20.24;36.40
50550;BME280;36505;52.512;13.460;2023-04-21T06:15:40;101461.09;;;19.10;37.09
50550;BME280;36505;52.512;13.460;2023-04-21T06:18:06;101444.22;;;19.46;37.02
50550;BME280;36505;52.512;13.460;2023-04-21T06:20:31;101448.94;;;19.55;37.09
50550;BME280;36505;52.512;13.460;2023-04-21T06:22:57;101444.97;;;20.00;36.23
50550;BME280;36505;52.512;13.460;2023-04-21T06:25:22;101443.59;;;20.37;35.20
50550;BME280;36505;52.512;13.460;2023-04-21T06:27:48;101453.63;;;20.62;35.06
50550;BME280;36505;52.512;13.460;2023-04-21T06:30:13;101444.47;;;20.85;34.27
50550;BME280;36505;52.512;13.460;2023-04-21T06:32:39;101443.28;;;21.15;34.12
50550;BME280;36505;52.512;13.460;2023-04-21T06:35:04;101444.56;;;21.22;33.51
50550;BME280;36505;52.512;13.460;2023-04-21T06:37:30;101444.38;;;21.38;33.39
50550;BME280;36505;52.512;13.460;2023-04-21T06:39:55;101442.75;;;21.55;33.55
50550;BME280;36505;52.512;13.460;2023-04-21T06:42:21;101444.16;;;20.63;33.99
50550;BME280;36505;52.512;13.460;2023-04-21T06:44:46;101440.03;;;20.60;33.89
50550;BME280;36505;52.512;13.460;2023-04-21T06:47:11;101438.09;;;20.56;34.71
50550;BME280;36505;52.512;13.460;2023-04-21T06:49:37;101434.56;;;20.98;33.43
50550;BME280;36505;52.512;13.460;2023-04-21T06:52:03;101439.84;;;21.23;34.02
50550;BME280;36505;52.512;13.460;2023-04-21T06:54:28;101425.50;;;21.11;33.28
50550;BME280;36505;52.512;13.460;2023-04-21T06:56:54;101434.97;;;21.34;33.36
50550;BME280;36505;52.512;13.460;2023-04-21T06:59:21;101425.63;;;21.99;32.53
50550;BME280;36505;52.512;13.460;2023-04-21T07:01:47;101415.75;;;21.88;32.25
50550;BME280;36505;52.512;13.460;2023-04-21T07:04:16;101435.06;;;22.03;31.44
50550;BME280;36505;52.512;13.460;2023-04-21T07:06:42;101429.44;;;21.85;32.12
50550;BME280;36505;52.512;13.460;2023-04-21T07:09:08;101424.72;;;21.29;33.57
50550;BME280;36505;52.512;13.460;2023-04-21T07:11:33;101428.25;;;22.10;32.62
50550;BME280;36505;52.512;13.460;2023-04-21T07:13:58;101420.69;;;22.42;31.47
50550;BME280;36505;52.512;13.460;2023-04-21T07:16:27;101422.22;;;22.35;31.08
50550;BME280;36505;52.512;13.460;2023-04-21T07:18:52;101422.63;;;21.96;31.47
50550;BME280;36505;52.512;13.460;2023-04-21T07:21:17;101424.81;;;21.61;32.08
50550;BME280;36505;52.512;13.460;2023-04-21T07:23:43;101420.97;;;21.76;32.39
50550;BME280;36505;52.512;13.460;2023-04-21T07:26:08;101419.50;;;21.97;32.01
50550;BME280;36505;52.512;13.460;2023-04-21T07:28:33;101421.19;;;22.31;31.06
50550;BME280;36505;52.512;13.460;2023-04-21T07:30:59;101422.00;;;22.45;30.42
50550;BME280;36505;52.512;13.460;2023-04-21T07:33:24;101425.03;;;22.62;31.23
50550;BME280;36505;52.512;13.460;2023-04-21T07:35:50;101424.00;;;22.12;31.72
50550;BME280;36505;52.512;13.460;2023-04-21T07:38:15;101418.25;;;22.82;30.44
50550;BME280;36505;52.512;13.460;2023-04-21T07:40:41;101413.75;;;23.36;29.59
50550;BME280;36505;52.512;13.460;2023-04-21T07:43:06;101412.41;;;24.27;29.92
50550;BME280;36505;52.512;13.460;2023-04-21T07:45:31;101422.81;;;25.06;29.22
50550;BME280;36505;52.512;13.460;2023-04-21T07:47:57;101414.69;;;25.78;26.46
50550;BME280;36505;52.512;13.460;2023-04-21T07:50:23;101411.16;;;25.21;27.58
50550;BME280;36505;52.512;13.460;2023-04-21T07:52:48;101413.34;;;26.10;26.97
50550;BME280;36505;52.512;13.460;2023-04-21T07:55:14;101422.28;;;25.61;26.55
50550;BME280;36505;52.512;13.460;2023-04-21T07:57:39;101424.38;;;25.46;26.69
50550;BME280;36505;52.512;13.460;2023-04-21T08:00:05;101417.41;;;25.18;25.72
50550;BME280;36505;52.512;13.460;2023-04-21T08:02:31;101411.03;;;25.52;26.95
50550;BME280;36505;52.512;13.460;2023-04-21T08:04:56;101407.09;;;24.57;27.12
50550;BME280;36505;52.512;13.460;2023-04-21T08:07:22;101408.44;;;25.64;27.16
50550;BME280;36505;52.512;13.460;2023-04-21T08:09:47;101415.69;;;25.82;26.37
50550;BME280;36505;52.512;13.460;2023-04-21T08:12:13;101415.63;;;26.81;25.15
50550;BME280;36505;52.512;13.460;2023-04-21T08:14:38;101405.97;;;27.49;24.80
50550;BME280;36505;52.512;13.460;2023-04-21T08:17:04;101401.66;;;27.72;24.34
50550;BME280;36505;52.512;13.460;2023-04-21T08:19:30;101406.06;;;27.61;23.71
50550;BME280;36505;52.512;13.460;2023-04-21T08:21:55;101398.25;;;27.17;23.91
50550;BME280;36505;52.512;13.460;2023-04-21T08:24:21;101403.25;;;27.61;23.41
50550;BME280;36505;52.512;13.460;2023-04-21T08:26:47;101393.94;;;28.02;22.79
50550;BME280;36505;52.512;13.460;2023-04-21T08:29:12;101393.16;;;28.14;22.77
50550;BME280;36505;52.512;13.460;2023-04-21T08:31:38;101388.50;;;28.75;22.74
50550;BME280;36505;52.512;13.460;2023-04-21T08:34:04;101394.09;;;29.24;21.95
50550;BME280;36505;52.512;13.460;2023-04-21T08:36:29;101410.31;;;29.15;21.37
50550;BME280;36505;52.512;13.460;2023-04-21T08:38:56;101389.47;;;28.79;21.54
50550;BME280;36505;52.512;13.460;2023-04-21T08:41:21;101408.75;;;28.44;22.18
50550;BME280;36505;52.512;13.460;2023-04-21T08:43:46;101395.34;;;28.29;22.18
50550;BME280;36505;52.512;13.460;2023-04-21T08:46:12;101400.16;;;28.28;22.60
50550;BME280;36505;52.512;13.460;2023-04-21T08:48:38;101391.59;;;28.37;21.89
50550;BME280;36505;52.512;13.460;2023-04-21T08:51:06;101394.00;;;28.72;22.13
50550;BME280;36505;52.512;13.460;2023-04-21T08:53:36;101398.19;;;28.53;21.56
50550;BME280;36505;52.512;13.460;2023-04-21T08:56:03;101395.69;;;28.40;22.04
50550;BME280;36505;52.512;13.460;2023-04-21T08:58:29;101395.59;;;28.36;22.39
50550;BME280;36505;52.512;13.460;2023-04-21T09:00:54;101389.78;;;29.26;22.10
50550;BME280;36505;52.512;13.460;2023-04-21T09:03:21;101391.88;;;30.09;20.26
50550;BME280;36505;52.512;13.460;2023-04-21T09:06:01;101401.78;;;30.03;20.54
50550;BME280;36505;52.512;13.460;2023-04-21T09:08:27;101395.94;;;29.56;21.03
50550;BME280;36505;52.512;13.460;2023-04-21T09:10:55;101389.25;;;29.61;21.29
50550;BME280;36505;52.512;13.460;2023-04-21T09:13:28;101371.69;;;29.67;20.54
50550;BME280;36505;52.512;13.460;2023-04-21T09:15:54;101373.53;;;29.23;20.81
50550;BME280;36505;52.512;13.460;2023-04-21T09:18:22;101385.75;;;29.79;21.33
50550;BME280;36505;52.512;13.460;2023-04-21T09:20:50;101378.63;;;30.41;21.21
50550;BME280;36505;52.512;13.460;2023-04-21T09:23:16;101378.28;;;30.58;20.42
50550;BME280;36505;52.512;13.460;2023-04-21T09:25:43;101382.56;;;30.52;20.22
50550;BME280;36505;52.512;13.460;2023-04-21T09:28:12;101374.91;;;30.53;20.86
50550;BME280;36505;52.512;13.460;2023-04-21T09:30:40;101374.09;;;30.84;20.55
50550;BME280;36505;52.512;13.460;2023-04-21T09:33:05;101387.38;;;30.36;20.86
50550;BME280;36505;52.512;13.460;2023-04-21T09:35:35;101390.97;;;29.13;21.58
50550;BME280;36505;52.512;13.460;2023-04-21T09:38:02;101369.66;;;27.98;22.73
50550;BME280;36505;52.512;13.460;2023-04-21T09:40:29;101382.16;;;26.96;24.19
50550;BME280;36505;52.512;13.460;2023-04-21T09:42:55;101368.66;;;26.52;24.84
50550;BME280;36505;52.512;13.460;2023-04-21T09:45:24;101365.16;;;26.55;25.36
50550;BME280;36505;52.512;13.460;2023-04-21T09:47:55;101360.84;;;26.11;25.88
50550;BME280;36505;52.512;13.460;2023-04-21T09:50:21;101374.72;;;25.55;26.98
50550;BME280;36505;52.512;13.460;2023-04-21T09:52:50;101373.03;;;24.24;27.40
50550;BME280;36505;52.512;13.460;2023-04-21T09:55:17;101360.19;;;23.56;27.98
50550;BME280;36505;52.512;13.460;2023-04-21T09:57:43;101363.53;;;22.54;28.12
50550;BME280;36505;52.512;13.460;2023-04-21T10:00:12;101366.88;;;21.58;30.13
50550;BME280;36505;52.512;13.460;2023-04-21T10:02:42;101362.47;;;21.20;30.34
50550;BME280;36505;52.512;13.460;2023-04-21T10:05:09;101370.91;;;20.91;30.98
50550;BME280;36505;52.512;13.460;2023-04-21T10:07:36;101370.31;;;20.70;31.32
50550;BME280;36505;52.512;13.460;2023-04-21T10:10:02;101369.25;;;20.42;31.63
50550;BME280;36505;52.512;13.460;2023-04-21T10:12:32;101351.88;;;20.27;32.36
50550;BME280;36505;52.512;13.460;2023-04-21T10:15:02;101366.09;;;20.25;32.01
50550;BME280;36505;52.512;13.460;2023-04-21T10:17:33;101378.75;;;20.07;31.70
50550;BME280;36505;52.512;13.460;2023-04-21T10:19:59;101362.56;;;19.86;32.87
50550;BME280;36505;52.512;13.460;2023-04-21T10:24:57;101363.06;;;19.59;32.70
50550;BME280;36505;52.512;13.460;2023-04-21T10:27:40;101360.66;;;19.81;32.36
50550;BME280;36505;52.512;13.460;2023-04-21T10:30:19;101356.25;;;19.75;31.47
50550;BME280;36505;52.512;13.460;2023-04-21T10:32:45;101350.81;;;19.65;32.41
50550;BME280;36505;52.512;13.460;2023-04-21T10:35:13;101350.47;;;19.71;33.03
50550;BME280;36505;52.512;13.460;2023-04-21T10:37:39;101340.97;;;19.78;32.19
50550;BME280;36505;52.512;13.460;2023-04-21T10:40:06;101358.91;;;19.90;32.83
50550;BME280;36505;52.512;13.460;2023-04-21T10:42:35;101352.31;;;19.47;32.81
50550;BME280;36505;52.512;13.460;2023-04-21T10:45:06;101350.75;;;19.31;33.79
50550;BME280;36505;52.512;13.460;2023-04-21T10:50:20;101337.41;;;18.89;33.72
50550;BME280;36505;52.512;13.460;2023-04-21T10:55:25;101341.69;;;19.15;34.42
50550;BME280;36505;52.512;13.460;2023-04-21T10:57:51;101334.97;;;19.21;34.17
50550;BME280;36505;52.512;13.460;2023-04-21T11:00:19;101339.66;;;19.31;34.70
50550;BME280;36505;52.512;13.460;2023-04-21T11:02:53;101318.88;;;19.23;35.24
50550;BME280;36505;52.512;13.460;2023-04-21T11:05:19;101341.09;;;19.23;34.80
50550;BME280;36505;52.512;13.460;2023-04-21T11:07:51;101319.53;;;19.05;33.78
50550;BME280;36505;52.512;13.460;2023-04-21T11:10:16;101315.53;;;18.77;34.74
50550;BME280;36505;52.512;13.460;2023-04-21T11:12:41;101329.69;;;18.76;34.92
50550;BME280;36505;52.512;13.460;2023-04-21T11:15:09;101296.16;;;18.67;35.91
50550;BME280;36505;52.512;13.460;2023-04-21T11:17:36;101302.50;;;18.73;35.43
50550;BME280;36505;52.512;13.460;2023-04-21T11:20:07;101297.88;;;18.58;35.47
50550;BME280;36505;52.512;13.460;2023-04-21T11:22:35;101302.88;;;18.46;35.31
50550;BME280;36505;52.512;13.460;2023-04-21T11:25:01;101307.81;;;18.64;35.65
50550;BME280;36505;52.512;13.460;2023-04-21T11:27:28;101309.75;;;18.69;34.89
50550;BME280;36505;52.512;13.460;2023-04-21T11:29:56;101295.09;;;18.58;35.52
50550;BME280;36505;52.512;13.460;2023-04-21T11:32:22;101284.28;;;18.62;35.11
50550;BME280;36505;52.512;13.460;2023-04-21T11:34:48;101280.13;;;18.59;35.52
50550;BME280;36505;52.512;13.460;2023-04-21T11:37:16;101275.88;;;18.72;35.93
50550;BME280;36505;52.512;13.460;2023-04-21T11:39:45;101276.47;;;18.69;34.41
50550;BME280;36505;52.512;13.460;2023-04-21T11:42:10;101282.66;;;18.56;35.70
50550;BME280;36505;52.512;13.460;2023-04-21T11:44:40;101282.06;;;18.53;34.23
50550;BME280;36505;52.512;13.460;2023-04-21T11:49:50;101275.44;;;18.44;36.29
50550;BME280;36505;52.512;13.460;2023-04-21T11:52:29;101274.88;;;18.42;34.58
50550;BME280;36505;52.512;13.460;2023-04-21T11:55:12;101269.34;;;18.37;35.82
50550;BME280;36505;52.512;13.460;2023-04-21T11:57:43;101263.84;;;18.32;34.79
50550;BME280;36505;52.512;13.460;2023-04-21T12:00:11;101279.38;;;18.33;33.97
50550;BME280;36505;52.512;13.460;2023-04-21T12:02:40;101260.78;;;18.34;34.29
50550;BME280;36505;52.512;13.460;2023-04-21T12:05:10;101256.06;;;18.29;34.95
50550;BME280;36505;52.512;13.460;2023-04-21T12:07:38;101258.53;;;18.41;35.54
50550;BME280;36505;52.512;13.460;2023-04-21T12:10:16;101256.28;;;18.43;35.32
50550;BME280;36505;52.512;13.460;2023-04-21T12:12:43;101247.16;;;18.47;35.75
50550;BME280;36505;52.512;13.460;2023-04-21T12:15:11;101250.44;;;18.60;35.80
50550;BME280;36505;52.512;13.460;2023-04-21T12:17:55;101259.00;;;18.68;35.32
50550;BME280;36505;52.512;13.460;2023-04-21T12:20:23;101259.31;;;18.62;34.30
50550;BME280;36505;52.512;13.460;2023-04-21T12:22:49;101246.03;;;18.48;35.16
50550;BME280;36505;52.512;13.460;2023-04-21T12:25:14;101254.03;;;18.55;35.20
50550;BME280;36505;52.512;13.460;2023-04-21T12:27:50;101253.75;;;18.62;35.12
50550;BME280;36505;52.512;13.460;2023-04-21T12:30:17;101250.16;;;18.56;35.51
50550;BME280;36505;52.512;13.460;2023-04-21T12:32:42;101248.84;;;18.38;35.55
50550;BME280;36505;52.512;13.460;2023-04-21T12:35:08;101226.38;;;18.40;36.26
50550;BME280;36505;52.512;13.460;2023-04-21T12:37:33;101213.91;;;18.37;35.97
50550;BME280;36505;52.512;13.460;2023-04-21T12:39:58;101229.69;;;18.47;35.63
50550;BME280;36505;52.512;13.460;2023-04-21T12:42:24;101231.59;;;18.51;35.25
50550;BME280;36505;52.512;13.460;2023-04-21T12:44:49;101223.81;;;18.53;34.90
50550;BME280;36505;52.512;13.460;2023-04-21T12:47:15;101233.25;;;18.52;35.18
50550;BME280;36505;52.512;13.460;2023-04-21T12:49:40;101226.94;;;18.42;34.50